Time;durP1;ratioP1;P1;durP2;ratioP2;P2;SDS_P1;SDS_P2;PMS_P1;PMS_P2;Temp;Humidity;BMP_temperature;BMP_pressure;BME280_temperature;BME280_humidity;BME280_pressure;Samples;Min_cycle;Max_cycle;Signal;HPM_P1;HPM_P2
2022/09/16 00:02:01;;;;;;;0.10;0.10;;;11.80;99.90;;;;;;4855407;29;20063;-75
2022/09/16 00:04:27;;;;;;;0.20;0.20;;;11.80;99.90;;;;;;4855110;29;20060;-76
2022/09/16 00:06:53;;;;;;;0.13;0.13;;;11.80;99.90;;;;;;4857398;29;20576;-76
2022/09/16 00:09:18;;;;;;;0.20;0.20;;;11.90;99.90;;;;;;4872990;29;20041;-75
2022/09/16 00:11:44;;;;;;;0.20;0.20;;;11.80;99.90;;;;;;4872032;29;20048;-76
2022/09/16 00:14:10;;;;;;;0.10;0.10;;;11.80;99.90;;;;;;4857090;29;20056;-76
2022/09/16 00:16:35;;;;;;;0.20;0.20;;;11.80;99.90;;;;;;4873657;29;20060;-75
2022/09/16 00:19:02;;;;;;;0.10;0.10;;;11.80;99.90;;;;;;4857169;29;20056;-75
2022/09/16 00:21:28;;;;;;;0.20;0.20;;;11.90;99.90;;;;;;4873568;29;20053;-75
2022/09/16 00:23:57;;;;;;;0.10;0.10;;;11.80;99.90;;;;;;4855078;29;20136;-75
2022/09/16 00:26:22;;;;;;;0.17;0.17;;;11.80;99.90;;;;;;4877763;29;20378;-75
2022/09/16 00:28:49;;;;;;;0.10;0.10;;;11.80;99.90;;;;;;4876629;29;20044;-76
2022/09/16 00:31:16;;;;;;;0.10;0.10;;;11.80;99.90;;;;;;4856969;29;20819;-76
2022/09/16 00:33:42;;;;;;;0.10;0.10;;;11.70;99.90;;;;;;4865886;29;20049;-75
2022/09/16 00:36:10;;;;;;;0.20;0.20;;;11.80;99.90;;;;;;4873678;29;20060;-75
2022/09/16 00:38:39;;;;;;;0.20;0.20;;;11.80;99.90;;;;;;4859748;29;20439;-76
2022/09/16 00:41:06;;;;;;;0.20;0.20;;;11.80;99.90;;;;;;4873587;29;20139;-75
2022/09/16 00:43:59;;;;;;;0.15;0.15;;;11.80;99.90;;;;;;4873803;29;20056;-75
2022/09/16 00:46:44;;;;;;;0.20;0.20;;;11.90;99.90;;;;;;4867720;29;20053;-75
2022/09/16 00:49:26;;;;;;;0.20;0.20;;;11.80;99.90;;;;;;4874809;29;20409;-75
2022/09/16 00:51:55;;;;;;;0.10;0.10;;;11.90;99.90;;;;;;4854032;29;20109;-75
2022/09/16 00:54:21;;;;;;;0.10;0.10;;;11.90;99.90;;;;;;4855942;29;20064;-75
2022/09/16 00:56:54;;;;;;;0.10;0.10;;;12.00;99.90;;;;;;4858599;29;20057;-75
2022/09/16 00:59:32;;;;;;;0.20;0.20;;;12.00;99.90;;;;;;4875271;29;20052;-75
2022/09/16 01:02:03;;;;;;;0.10;0.10;;;11.90;99.90;;;;;;4862081;29;20079;-75
2022/09/16 01:04:34;;;;;;;0.20;0.20;;;11.80;99.90;;;;;;4865431;29;20060;-75
2022/09/16 01:07:00;;;;;;;0.20;0.20;;;11.80;99.90;;;;;;4871622;29;20045;-75
2022/09/16 01:09:28;;;;;;;0.20;0.20;;;11.70;99.90;;;;;;4874401;29;20546;-75
2022/09/16 01:11:54;;;;;;;0.10;0.10;;;11.70;99.90;;;;;;4855738;29;20045;-76
2022/09/16 01:17:41;;;;;;;0.20;0.20;;;11.60;99.90;;;;;;4871604;29;20057;-75
2022/09/16 01:20:44;;;;;;;0.10;0.10;;;11.60;99.90;;;;;;4854761;29;20053;-75
2022/09/16 01:23:44;;;;;;;0.20;0.20;;;11.60;99.90;;;;;;4855045;29;20060;-76
2022/09/16 01:26:15;;;;;;;0.20;0.20;;;11.60;99.90;;;;;;4857406;29;20061;-75
2022/09/16 01:28:50;;;;;;;0.20;0.20;;;11.70;99.90;;;;;;4872582;29;20044;-75
2022/09/16 01:31:34;;;;;;;0.20;0.20;;;11.60;99.90;;;;;;4857355;29;20045;-75
2022/09/16 01:34:28;;;;;;;0.15;0.15;;;11.60;99.90;;;;;;4874330;29;20132;-75
2022/09/16 01:37:25;;;;;;;0.20;0.20;;;11.60;99.90;;;;;;4854447;29;20145;-75
2022/09/16 01:40:08;;;;;;;0.15;0.15;;;11.60;99.90;;;;;;4849588;29;20144;-76
2022/09/16 01:42:38;;;;;;;0.10;0.10;;;11.60;99.90;;;;;;4873278;29;20041;-75
2022/09/16 01:45:09;;;;;;;0.15;0.15;;;11.60;99.90;;;;;;4872817;29;20056;-76
2022/09/16 01:47:39;;;;;;;0.10;0.10;;;11.50;99.90;;;;;;4856533;29;20063;-76
2022/09/16 01:50:25;;;;;;;0.20;0.20;;;11.50;99.90;;;;;;4871794;29;20049;-76
2022/09/16 01:53:29;;;;;;;0.20;0.20;;;11.50;99.90;;;;;;4851880;29;20120;-76
2022/09/16 01:56:13;;;;;;;0.20;0.20;;;11.50;99.90;;;;;;4817751;29;20058;-75
2022/09/16 01:59:08;;;;;;;0.10;0.10;;;11.60;99.90;;;;;;4860684;29;20041;-76
2022/09/16 02:01:46;;;;;;;0.20;0.20;;;11.60;99.90;;;;;;4875324;29;20076;-76
2022/09/16 02:04:23;;;;;;;0.10;0.10;;;11.60;99.90;;;;;;4864896;29;20056;-76
2022/09/16 02:06:52;;;;;;;0.13;0.13;;;11.60;99.90;;;;;;4877375;29;20086;-76
2022/09/16 02:09:25;;;;;;;0.20;0.20;;;11.60;99.90;;;;;;4878834;29;20053;-75
2022/09/16 02:11:55;;;;;;;0.20;0.20;;;11.60;99.90;;;;;;4860652;29;20060;-76
2022/09/16 02:14:25;;;;;;;0.20;0.20;;;11.70;99.90;;;;;;4869800;29;20556;-76
2022/09/16 02:17:01;;;;;;;0.10;0.10;;;11.70;99.90;;;;;;4874244;29;20053;-76
2022/09/16 02:20:01;;;;;;;0.20;0.20;;;11.70;99.90;;;;;;4875836;29;20147;-76
2022/09/16 02:22:33;;;;;;;0.10;0.10;;;11.80;99.90;;;;;;4872076;29;20084;-76
2022/09/16 02:25:01;;;;;;;0.20;0.20;;;11.70;99.90;;;;;;4857005;29;20043;-76
2022/09/16 02:27:29;;;;;;;0.20;0.20;;;11.70;99.90;;;;;;4875777;29;20469;-75
2022/09/16 02:30:00;;;;;;;0.20;0.20;;;11.80;99.90;;;;;;4875373;29;20044;-76
2022/09/16 02:32:28;;;;;;;0.30;0.30;;;11.80;99.90;;;;;;4874518;29;20068;-76
2022/09/16 02:34:55;;;;;;;0.10;0.10;;;11.60;99.90;;;;;;4866291;29;20107;-76
2022/09/16 02:37:27;;;;;;;0.20;0.20;;;11.60;99.90;;;;;;4861644;29;20084;-76
2022/09/16 02:40:00;;;;;;;0.20;0.20;;;11.60;99.90;;;;;;4868690;29;20086;-75
2022/09/16 02:42:29;;;;;;;0.20;0.20;;;11.60;99.90;;;;;;4868615;29;20072;-76
2022/09/16 02:44:57;;;;;;;0.20;0.20;;;11.60;99.90;;;;;;4870926;29;20085;-76
2022/09/16 02:47:30;;;;;;;0.20;0.20;;;11.60;99.90;;;;;;4874477;29;20052;-75
2022/09/16 02:50:00;;;;;;;0.10;0.10;;;11.60;99.90;;;;;;4878313;29;20052;-75
2022/09/16 02:52:42;;;;;;;0.20;0.20;;;11.70;99.90;;;;;;4869000;29;20504;-75
2022/09/16 02:55:07;;;;;;;;;;;11.60;99.90;;;;;;4875147;29;20041;-75
2022/09/16 02:57:33;;;;;;;0.20;0.20;;;11.60;99.90;;;;;;4858081;29;19946;-75
2022/09/16 02:59:59;;;;;;;0.20;0.20;;;11.60;99.90;;;;;;4874017;29;20056;-75
2022/09/16 03:02:25;;;;;;;0.20;0.20;;;11.60;99.90;;;;;;4852740;29;20113;-75
2022/09/16 03:04:50;;;;;;;0.10;0.10;;;11.60;99.90;;;;;;4874084;29;20049;-75
2022/09/16 03:07:16;;;;;;;0.20;0.20;;;11.60;99.90;;;;;;4869528;29;20041;-76
2022/09/16 03:09:44;;;;;;;0.20;0.20;;;11.60;99.90;;;;;;4859776;29;20389;-76
2022/09/16 03:12:12;;;;;;;0.10;0.10;;;11.60;99.90;;;;;;4874469;29;20045;-75
2022/09/16 03:15:09;;;;;;;0.20;0.20;;;11.60;99.90;;;;;;4867565;29;21840;-76
2022/09/16 03:17:50;;;;;;;0.13;0.13;;;11.60;99.90;;;;;;4857850;29;20047;-75
2022/09/16 03:20:46;;;;;;;0.20;0.20;;;11.60;99.90;;;;;;4857053;29;20135;-76
2022/09/16 03:23:18;;;;;;;0.20;0.20;;;11.50;99.90;;;;;;4873246;29;20052;-75
2022/09/16 03:25:46;;;;;;;0.20;0.20;;;11.50;99.90;;;;;;4868993;29;20041;-75
2022/09/16 03:28:34;;;;;;;0.17;0.17;;;11.50;99.90;;;;;;4857373;29;20186;-75
2022/09/16 03:31:06;;;;;;;0.10;0.10;;;11.50;99.90;;;;;;4856398;29;20057;-75
2022/09/16 03:33:57;;;;;;;0.15;0.15;;;11.50;99.90;;;;;;4858190;29;20056;-76
2022/09/16 03:36:29;;;;;;;0.20;0.20;;;11.40;99.90;;;;;;4855020;29;20047;-76
2022/09/16 03:38:57;;;;;;;0.20;0.20;;;11.40;99.90;;;;;;4876115;29;20049;-76
2022/09/16 03:41:23;;;;;;;0.10;0.10;;;11.40;99.90;;;;;;4856191;29;20104;-76
2022/09/16 03:43:56;;;;;;;0.15;0.15;;;11.40;99.90;;;;;;4871639;29;20045;-76
2022/09/16 03:46:22;;;;;;;0.20;0.20;;;11.50;99.90;;;;;;4857736;29;20037;-76
2022/09/16 03:48:48;;;;;;;0.20;0.20;;;11.30;99.90;;;;;;4858823;29;20043;-76
2022/09/16 03:51:14;;;;;;;0.20;0.20;;;11.30;99.90;;;;;;4873156;29;20370;-76
2022/09/16 03:53:40;;;;;;;0.10;0.10;;;11.30;99.90;;;;;;4876465;29;20093;-76
2022/09/16 03:56:06;;;;;;;0.15;0.15;;;11.30;99.90;;;;;;4857012;29;20101;-76
2022/09/16 03:58:31;;;;;;;0.20;0.20;;;11.30;99.90;;;;;;4873428;29;20738;-76
2022/09/16 04:00:57;;;;;;;0.20;0.20;;;11.20;99.90;;;;;;4873141;29;20041;-76
2022/09/16 04:03:22;;;;;;;0.10;0.10;;;11.20;99.90;;;;;;4856648;29;20340;-76
2022/09/16 04:05:55;;;;;;;0.20;0.20;;;11.20;99.90;;;;;;4858695;29;20045;-76
2022/09/16 04:08:21;;;;;;;0.20;0.20;;;11.10;99.90;;;;;;4860007;29;20131;-76
2022/09/16 04:11:01;;;;;;;0.20;0.20;;;11.10;99.90;;;;;;4872211;29;20554;-76
2022/09/16 04:13:32;;;;;;;0.20;0.20;;;11.10;99.90;;;;;;4852904;29;20057;-76
2022/09/16 04:15:58;;;;;;;0.20;0.20;;;11.10;99.90;;;;;;4873698;29;20124;-76
2022/09/16 04:18:24;;;;;;;0.17;0.17;;;11.10;99.90;;;;;;4864185;29;20037;-75
2022/09/16 04:20:50;;;;;;;0.13;0.13;;;11.10;99.90;;;;;;4885228;29;20045;-76
2022/09/16 04:23:18;;;;;;;0.20;0.20;;;10.80;99.90;;;;;;4875341;29;20466;-76
2022/09/16 04:25:44;;;;;;;0.10;0.10;;;11.00;99.90;;;;;;4873862;29;20077;-75
2022/09/16 04:28:09;;;;;;;0.20;0.20;;;11.50;99.90;;;;;;4869290;29;20087;-76
2022/09/16 04:30:35;;;;;;;0.17;0.17;;;11.00;99.90;;;;;;4857406;29;20053;-76
2022/09/16 04:33:01;;;;;;;0.20;0.20;;;10.90;99.90;;;;;;4874958;29;20053;-76
2022/09/16 04:35:27;;;;;;;0.10;0.10;;;11.10;99.90;;;;;;4881600;29;20048;-76
2022/09/16 04:37:52;;;;;;;0.20;0.20;;;10.90;99.90;;;;;;4857738;29;20124;-76
2022/09/16 04:40:18;;;;;;;0.20;0.20;;;10.80;99.90;;;;;;4867866;29;20148;-77
2022/09/16 04:42:48;;;;;;;0.20;0.20;;;10.80;99.90;;;;;;4867513;29;20458;-76
2022/09/16 04:45:14;;;;;;;0.17;0.17;;;10.90;99.90;;;;;;4856750;29;20049;-76
2022/09/16 04:47:39;;;;;;;0.10;0.10;;;10.80;99.90;;;;;;4872417;29;20536;-76
2022/09/16 04:50:06;;;;;;;0.10;0.10;;;10.80;99.90;;;;;;4871496;29;20137;-76
2022/09/16 04:52:31;;;;;;;0.10;0.10;;;10.80;99.90;;;;;;4872706;29;20060;-76
2022/09/16 04:54:57;;;;;;;0.20;0.20;;;10.90;99.90;;;;;;4874183;29;20045;-76
2022/09/16 04:57:23;;;;;;;0.15;0.15;;;10.90;99.90;;;;;;4875418;29;20120;-76
2022/09/16 04:59:48;;;;;;;0.20;0.20;;;10.90;99.90;;;;;;4873902;29;20092;-77
2022/09/16 05:02:14;;;;;;;0.20;0.20;;;10.90;99.90;;;;;;4856804;29;20526;-76
2022/09/16 05:04:40;;;;;;;0.20;0.20;;;10.90;99.90;;;;;;4864032;29;20041;-77
2022/09/16 05:07:05;;;;;;;0.20;0.20;;;10.90;99.90;;;;;;4874326;29;20086;-77
2022/09/16 05:09:31;;;;;;;0.20;0.20;;;10.90;99.90;;;;;;4874602;29;20059;-76
2022/09/16 05:11:57;;;;;;;0.20;0.20;;;10.90;99.90;;;;;;4852262;29;20046;-76
2022/09/16 05:14:22;;;;;;;0.20;0.20;;;10.90;99.90;;;;;;4852541;29;20113;-76
2022/09/16 05:16:48;;;;;;;0.20;0.20;;;10.90;99.90;;;;;;4870267;29;20053;-77
2022/09/16 05:19:13;;;;;;;0.20;0.20;;;10.90;99.90;;;;;;4872292;29;20056;-77
2022/09/16 05:21:40;;;;;;;0.20;0.20;;;10.90;99.90;;;;;;4855126;29;20052;-77
2022/09/16 05:24:09;;;;;;;0.20;0.20;;;10.90;99.90;;;;;;4873268;29;20045;-76
2022/09/16 05:26:37;;;;;;;0.17;0.17;;;10.90;99.90;;;;;;4871040;29;20041;-77
2022/09/16 05:29:10;;;;;;;0.20;0.20;;;10.90;99.90;;;;;;4870635;29;20033;-76
2022/09/16 05:31:38;;;;;;;0.20;0.20;;;10.90;99.90;;;;;;4873344;29;20048;-77
2022/09/16 05:34:12;;;;;;;0.20;0.20;;;10.90;99.90;;;;;;4875479;29;20053;-76
2022/09/16 05:36:38;;;;;;;0.10;0.10;;;11.00;99.90;;;;;;4857467;29;20549;-76
2022/09/16 05:39:04;;;;;;;0.20;0.20;;;11.00;99.90;;;;;;4877885;29;20068;-76
2022/09/16 05:41:30;;;;;;;0.20;0.20;;;10.90;99.90;;;;;;4858995;29;20053;-76
2022/09/16 05:44:00;;;;;;;0.20;0.20;;;11.00;99.90;;;;;;4862356;29;20057;-76
2022/09/16 05:46:27;;;;;;;0.20;0.20;;;11.00;99.90;;;;;;4859975;29;20041;-76
2022/09/16 05:48:53;;;;;;;0.20;0.20;;;11.00;99.90;;;;;;4861796;29;20113;-76
2022/09/16 05:51:21;;;;;;;0.20;0.20;;;11.00;99.90;;;;;;4876916;29;20044;-76
2022/09/16 05:53:50;;;;;;;0.20;0.20;;;11.00;99.90;;;;;;4875126;29;20040;-76
2022/09/16 05:56:24;;;;;;;0.20;0.20;;;11.00;99.90;;;;;;4861820;29;20052;-76
2022/09/16 05:58:55;;;;;;;0.20;0.20;;;11.00;99.90;;;;;;4871284;29;20053;-76
2022/09/16 06:01:26;;;;;;;0.20;0.20;;;11.00;99.90;;;;;;4873973;29;20056;-76
2022/09/16 06:03:53;;;;;;;0.10;0.10;;;11.00;99.90;;;;;;4877495;29;20112;-76
2022/09/16 06:06:22;;;;;;;0.20;0.20;;;11.00;99.90;;;;;;4854449;29;20045;-76
2022/09/16 06:08:48;;;;;;;0.20;0.20;;;11.00;99.90;;;;;;4855102;29;20080;-76
2022/09/16 06:11:14;;;;;;;0.20;0.20;;;11.00;99.90;;;;;;4885949;29;20168;-76
2022/09/16 06:13:40;;;;;;;0.20;0.20;;;11.30;99.90;;;;;;4861847;29;20057;-76
2022/09/16 06:16:07;;;;;;;0.20;0.20;;;11.00;99.90;;;;;;4859329;29;20532;-77
2022/09/16 06:18:34;;;;;;;0.10;0.10;;;11.00;99.90;;;;;;4877147;29;20131;-77
2022/09/16 06:21:03;;;;;;;0.20;0.20;;;11.00;99.90;;;;;;4859955;29;20045;-76
2022/09/16 06:23:29;;;;;;;0.10;0.10;;;11.50;99.90;;;;;;4875871;29;20044;-76
2022/09/16 06:26:07;;;;;;;0.20;0.20;;;11.00;99.90;;;;;;4857567;29;20131;-77
2022/09/16 06:28:33;;;;;;;0.20;0.20;;;11.00;99.90;;;;;;4861251;29;20056;-76
2022/09/16 06:31:05;;;;;;;0.20;0.20;;;11.00;99.90;;;;;;4872445;29;20759;-76
2022/09/16 06:33:31;;;;;;;0.20;0.20;;;11.10;99.90;;;;;;4876473;29;20053;-77
2022/09/16 06:36:01;;;;;;;0.20;0.20;;;11.10;99.90;;;;;;4860192;29;20071;-76
2022/09/16 06:38:26;;;;;;;0.20;0.20;;;11.10;99.90;;;;;;4878075;29;20072;-76
2022/09/16 06:40:52;;;;;;;0.20;0.20;;;11.20;99.90;;;;;;4858117;29;20465;-76
2022/09/16 06:43:18;;;;;;;0.10;0.10;;;11.20;99.90;;;;;;4875607;29;20053;-76
2022/09/16 06:45:43;;;;;;;0.10;0.10;;;11.20;99.90;;;;;;4856806;29;20053;-76
2022/09/16 06:48:09;;;;;;;0.30;0.30;;;11.30;99.90;;;;;;4875751;29;20041;-76
2022/09/16 06:50:34;;;;;;;0.20;0.20;;;11.40;99.90;;;;;;4877694;29;20045;-76
2022/09/16 06:53:00;;;;;;;0.20;0.20;;;11.40;99.90;;;;;;4858643;29;20049;-76
2022/09/16 06:55:26;;;;;;;0.20;0.20;;;11.50;99.90;;;;;;4858725;29;20049;-75
2022/09/16 06:57:52;;;;;;;0.15;0.15;;;11.50;99.90;;;;;;4872429;29;20041;-75
2022/09/16 07:00:17;;;;;;;0.10;0.10;;;11.60;99.90;;;;;;4856214;29;20697;-75
2022/09/16 07:02:43;;;;;;;0.20;0.20;;;11.60;99.90;;;;;;4877323;29;20056;-76
2022/09/16 07:05:10;;;;;;;0.20;0.20;;;11.70;99.90;;;;;;4856205;29;20060;-76
2022/09/16 07:07:38;;;;;;;0.20;0.20;;;11.90;99.90;;;;;;4858439;29;20056;-77
2022/09/16 07:10:05;;;;;;;0.10;0.10;;;12.00;99.90;;;;;;4860202;29;20424;-74
2022/09/16 07:12:31;;;;;;;0.20;0.20;;;12.00;99.90;;;;;;4860634;29;20064;-74
2022/09/16 07:14:56;;;;;;;0.20;0.20;;;12.10;99.90;;;;;;4861060;29;20055;-75
2022/09/16 07:17:25;;;;;;;0.17;0.17;;;12.10;99.90;;;;;;4875195;29;20096;-75
2022/09/16 07:19:52;;;;;;;0.20;0.20;;;12.20;99.90;;;;;;4860908;29;20064;-75
2022/09/16 07:22:17;;;;;;;0.20;0.20;;;12.10;99.90;;;;;;4857038;29;20096;-75
2022/09/16 07:24:44;;;;;;;0.20;0.20;;;12.20;99.90;;;;;;4858754;29;20052;-75
2022/09/16 07:27:10;;;;;;;0.20;0.20;;;12.30;99.90;;;;;;4873134;29;20057;-74
2022/09/16 07:29:36;;;;;;;0.20;0.20;;;12.30;99.90;;;;;;4874677;29;20056;-75
2022/09/16 07:32:02;;;;;;;0.20;0.20;;;12.30;99.90;;;;;;4876045;29;20025;-75
2022/09/16 07:34:27;;;;;;;0.20;0.20;;;12.40;99.90;;;;;;4878194;29;20057;-75
2022/09/16 07:36:53;;;;;;;0.20;0.20;;;12.40;99.90;;;;;;4859133;29;20049;-74
2022/09/16 07:39:20;;;;;;;0.20;0.20;;;12.40;99.90;;;;;;4858137;29;20053;-76
2022/09/16 07:41:47;;;;;;;0.20;0.20;;;12.50;99.90;;;;;;4874941;29;20478;-75
2022/09/16 07:44:14;;;;;;;0.20;0.20;;;12.50;99.90;;;;;;4876009;29;20053;-76
2022/09/16 07:46:40;;;;;;;0.20;0.20;;;12.50;99.90;;;;;;4858006;29;21873;-75
2022/09/16 07:49:09;;;;;;;0.20;0.20;;;12.50;99.90;;;;;;4858802;29;20056;-75
2022/09/16 07:51:35;;;;;;;0.20;0.20;;;12.60;99.90;;;;;;4859011;29;20044;-75
2022/09/16 07:54:05;;;;;;;0.20;0.20;;;12.60;99.90;;;;;;4856169;29;20057;-75
2022/09/16 07:56:34;;;;;;;0.20;0.20;;;12.60;99.90;;;;;;4857049;29;20108;-75
2022/09/16 07:59:01;;;;;;;0.10;0.10;;;12.70;99.90;;;;;;4878111;29;20092;-75
2022/09/16 08:01:29;;;;;;;0.20;0.20;;;12.80;99.90;;;;;;4874166;29;20052;-75
2022/09/16 08:03:56;;;;;;;0.20;0.20;;;12.90;99.90;;;;;;4875538;29;20052;-75
2022/09/16 08:06:24;;;;;;;0.15;0.15;;;13.00;99.90;;;;;;4857975;29;20063;-75
2022/09/16 08:08:52;;;;;;;0.10;0.10;;;13.00;99.90;;;;;;4852955;29;20128;-76
2022/09/16 08:11:17;;;;;;;0.10;0.10;;;13.10;99.90;;;;;;4855772;29;20109;-75
2022/09/16 08:13:44;;;;;;;0.20;0.20;;;13.10;99.90;;;;;;4868990;29;20049;-75
2022/09/16 08:16:15;;;;;;;0.20;0.20;;;13.10;99.90;;;;;;4865809;29;20104;-75
2022/09/16 08:18:41;;;;;;;0.20;0.20;;;13.10;99.90;;;;;;4863835;29;20052;-75
2022/09/16 08:21:22;;;;;;;0.20;0.20;;;13.20;99.90;;;;;;4865652;29;20048;-75
2022/09/16 08:23:48;;;;;;;0.20;0.20;;;13.20;99.90;;;;;;4849623;29;20060;-75
2022/09/16 08:26:16;;;;;;;0.20;0.20;;;13.30;99.90;;;;;;4852887;29;20502;-75
2022/09/16 08:28:43;;;;;;;0.17;0.17;;;13.30;99.90;;;;;;4873683;29;20115;-75
2022/09/16 08:31:09;;;;;;;0.15;0.15;;;13.30;99.90;;;;;;4866559;29;20049;-75
2022/09/16 08:33:37;;;;;;;0.20;0.20;;;13.40;99.90;;;;;;4871894;29;20108;-76
2022/09/16 08:36:15;;;;;;;0.20;0.20;;;13.40;99.90;;;;;;4852504;29;20041;-79
2022/09/16 08:38:42;;;;;;;0.10;0.10;;;13.50;99.90;;;;;;4851168;29;20060;-80
2022/09/16 08:41:34;;;;;;;0.10;0.10;;;13.50;99.90;;;;;;4874301;29;20053;-80
2022/09/16 08:44:24;;;;;;;0.20;0.20;;;13.60;99.90;;;;;;4847892;29;20041;-79
2022/09/16 08:47:05;;;;;;;0.20;0.20;;;13.60;99.90;;;;;;4850669;29;20094;-79
2022/09/16 08:49:50;;;;;;;0.20;0.20;;;13.70;99.90;;;;;;4869434;29;20131;-79
2022/09/16 08:52:24;;;;;;;0.10;0.10;;;13.90;99.90;;;;;;4856632;29;20056;-79
2022/09/16 08:54:57;;;;;;;0.20;0.20;;;13.90;99.90;;;;;;4850343;29;20252;-80
2022/09/16 08:57:27;;;;;;;0.20;0.20;;;14.00;99.90;;;;;;4869865;29;20512;-78
2022/09/16 09:00:18;;;;;;;0.20;0.20;;;14.00;99.90;;;;;;4868375;29;20107;-78
2022/09/16 09:03:06;;;;;;;0.10;0.10;;;14.10;99.90;;;;;;4855347;29;20502;-80
2022/09/16 09:05:40;;;;;;;0.15;0.15;;;14.20;99.90;;;;;;4860538;29;20049;-79
2022/09/16 09:08:09;;;;;;;0.20;0.20;;;14.30;99.90;;;;;;4875575;29;20066;-80
2022/09/16 09:10:40;;;;;;;0.20;0.20;;;14.40;99.90;;;;;;4857817;29;20095;-79
2022/09/16 09:13:35;;;;;;;0.20;0.20;;;14.50;99.90;;;;;;4849923;29;20057;-79
2022/09/16 09:16:25;;;;;;;0.15;0.15;;;14.60;99.90;;;;;;4869461;29;20068;-78
2022/09/16 09:19:12;;;;;;;0.20;0.20;;;14.60;99.90;;;;;;4858803;29;20053;-80
2022/09/16 09:21:51;;;;;;;0.20;0.20;;;14.60;99.90;;;;;;4873258;29;20049;-79
2022/09/16 09:24:35;;;;;;;0.20;0.20;;;14.60;99.90;;;;;;4841720;29;20445;-81
2022/09/16 09:27:14;;;;;;;0.20;0.20;;;14.50;99.90;;;;;;4859521;29;20509;-80
2022/09/16 09:30:01;;;;;;;0.20;0.20;;;14.50;99.90;;;;;;4858272;29;20041;-79
2022/09/16 09:32:27;;;;;;;0.13;0.13;;;14.50;99.90;;;;;;4875411;29;20056;-80
2022/09/16 09:35:10;;;;;;;0.20;0.20;;;14.60;99.90;;;;;;4857437;29;20399;-80
2022/09/16 09:37:39;;;;;;;0.10;0.10;;;14.60;99.90;;;;;;4876276;29;20041;-80
2022/09/16 09:40:25;;;;;;;0.20;0.20;;;14.60;99.90;;;;;;4875218;29;20261;-79
2022/09/16 09:43:14;;;;;;;0.20;0.20;;;14.70;99.90;;;;;;4855712;29;20556;-79
2022/09/16 09:45:58;;;;;;;0.20;0.20;;;14.70;99.90;;;;;;4858997;29;20045;-78
2022/09/16 09:48:29;;;;;;;0.20;0.20;;;14.80;99.90;;;;;;4858870;29;20552;-78
2022/09/16 09:50:58;;;;;;;0.13;0.13;;;14.90;99.90;;;;;;4873976;29;20140;-79
2022/09/16 09:53:31;;;;;;;0.20;0.20;;;14.90;99.90;;;;;;4859795;29;20109;-79
2022/09/16 09:56:04;;;;;;;0.20;0.20;;;14.70;99.90;;;;;;4873869;29;20068;-79
2022/09/16 09:58:40;;;;;;;0.10;0.10;;;14.50;99.90;;;;;;4863175;29;20049;-79
2022/09/16 10:01:05;;;;;;;0.20;0.20;;;14.30;99.90;;;;;;4873230;29;20478;-79
2022/09/16 10:03:31;;;;;;;0.20;0.20;;;14.20;99.90;;;;;;4875667;29;20052;-78
2022/09/16 10:05:57;;;;;;;0.20;0.20;;;14.10;99.90;;;;;;4845165;29;20049;-78
2022/09/16 10:08:33;;;;;;;0.20;0.20;;;14.00;99.90;;;;;;4856606;29;20049;-79
2022/09/16 10:11:13;;;;;;;0.10;0.10;;;14.00;99.90;;;;;;4850352;29;20384;-79
2022/09/16 10:13:48;;;;;;;0.20;0.20;;;13.90;99.90;;;;;;4876074;29;20048;-78
2022/09/16 10:16:19;;;;;;;0.20;0.20;;;14.00;99.90;;;;;;4847697;29;20080;-79
2022/09/16 10:18:53;;;;;;;0.20;0.20;;;14.00;99.90;;;;;;4860451;29;20045;-79
2022/09/16 10:21:19;;;;;;;0.20;0.20;;;14.10;99.90;;;;;;4876356;29;20064;-79
2022/09/16 10:23:56;;;;;;;0.20;0.20;;;14.30;99.90;;;;;;4877587;29;20505;-79
2022/09/16 10:26:27;;;;;;;0.20;0.20;;;14.40;99.90;;;;;;4861757;29;20052;-81
2022/09/16 10:29:01;;;;;;;0.10;0.10;;;14.60;99.90;;;;;;4878713;29;20120;-79
2022/09/16 10:31:45;;;;;;;0.20;0.20;;;14.70;99.90;;;;;;4876099;29;20084;-80
2022/09/16 10:34:18;;;;;;;0.10;0.10;;;14.90;99.90;;;;;;4862366;29;20064;-80
2022/09/16 10:36:45;;;;;;;0.10;0.10;;;15.00;99.90;;;;;;4861325;29;20132;-80
2022/09/16 10:39:23;;;;;;;0.20;0.20;;;15.10;99.90;;;;;;4877425;29;20059;-80
2022/09/16 10:41:49;;;;;;;0.20;0.20;;;15.20;99.90;;;;;;4862944;29;20045;-80
2022/09/16 10:44:28;;;;;;;0.20;0.20;;;15.30;99.90;;;;;;4878145;29;20051;-80
2022/09/16 10:47:06;;;;;;;0.20;0.20;;;15.20;99.90;;;;;;4860075;29;20504;-80
2022/09/16 10:49:56;;;;;;;0.20;0.20;;;15.20;99.90;;;;;;4861062;29;20041;-80
2022/09/16 10:52:27;;;;;;;0.10;0.10;;;15.20;99.90;;;;;;4877995;29;20045;-80
2022/09/16 10:54:54;;;;;;;0.20;0.20;;;15.30;99.90;;;;;;4861224;29;20056;-81
2022/09/16 10:57:27;;;;;;;0.10;0.10;;;15.40;99.90;;;;;;4878952;29;20045;-80
2022/09/16 11:00:19;;;;;;;0.20;0.20;;;15.50;99.90;;;;;;4858067;29;20081;-79
2022/09/16 11:03:08;;;;;;;0.17;0.17;;;15.70;99.90;;;;;;4877457;29;20124;-80
2022/09/16 11:05:37;;;;;;;0.20;0.20;;;15.80;99.90;;;;;;4876985;29;20064;-79
2022/09/16 11:08:40;;;;;;;0.20;0.20;;;16.00;99.90;;;;;;4859765;29;20045;-80
2022/09/16 11:11:17;;;;;;;0.15;0.15;;;16.00;99.90;;;;;;4860611;29;20131;-77
2022/09/16 11:13:58;;;;;;;0.20;0.20;;;15.70;99.90;;;;;;4878012;29;20060;-77
2022/09/16 11:16:32;;;;;;;0.20;0.20;;;15.30;99.90;;;;;;4858804;29;20056;-78
2022/09/16 11:19:17;;;;;;;0.20;0.20;;;14.90;99.90;;;;;;4877804;29;20096;-78
2022/09/16 11:21:59;;;;;;;0.20;0.20;;;14.60;99.90;;;;;;4858840;29;20045;-78
2022/09/16 11:24:42;;;;;;;0.20;0.20;;;14.50;99.90;;;;;;4858425;29;20089;-79
2022/09/16 11:27:28;;;;;;;0.10;0.10;;;14.50;99.90;;;;;;4877231;29;20121;-79
2022/09/16 11:30:02;;;;;;;0.10;0.10;;;14.60;99.90;;;;;;4875728;29;20401;-79
2022/09/16 11:32:58;;;;;;;0.10;0.10;;;14.70;99.90;;;;;;4858190;29;20047;-80
2022/09/16 11:35:36;;;;;;;0.10;0.10;;;14.80;99.90;;;;;;4876683;29;20190;-79
2022/09/16 11:38:22;;;;;;;0.10;0.10;;;15.00;99.90;;;;;;4877762;29;20053;-78
2022/09/16 11:41:12;;;;;;;0.20;0.20;;;15.10;99.90;;;;;;4858017;29;20057;-79
2022/09/16 11:43:43;;;;;;;0.10;0.10;;;15.30;99.90;;;;;;4876602;29;20110;-79
2022/09/16 11:46:23;;;;;;;0.20;0.20;;;15.40;99.90;;;;;;4859953;29;20103;-79
2022/09/16 11:49:17;;;;;;;0.20;0.20;;;15.50;99.90;;;;;;4876800;29;20100;-80
2022/09/16 11:52:04;;;;;;;0.20;0.20;;;15.70;99.90;;;;;;4865228;29;20533;-80
2022/09/16 11:55:06;;;;;;;0.10;0.10;;;15.80;99.90;;;;;;4876706;29;20055;-80
2022/09/16 11:57:36;;;;;;;0.20;0.20;;;15.90;99.90;;;;;;4860374;29;20461;-81
2022/09/16 12:00:15;;;;;;;0.20;0.20;;;15.90;99.90;;;;;;4860515;29;20053;-81
2022/09/16 12:03:04;;;;;;;0.20;0.20;;;15.90;99.90;;;;;;4875432;29;20485;-80
2022/09/16 12:05:34;;;;;;;0.20;0.20;;;15.90;99.90;;;;;;4874602;29;20136;-79
2022/09/16 12:08:11;;;;;;;0.20;0.20;;;15.90;99.90;;;;;;4877089;29;20045;-81
2022/09/16 12:10:52;;;;;;;0.20;0.20;;;15.90;99.90;;;;;;4876349;29;20080;-77
2022/09/16 12:13:27;;;;;;;0.20;0.20;;;15.90;99.90;;;;;;4875779;29;20138;-79
2022/09/16 12:15:57;;;;;;;0.20;0.20;;;15.90;99.90;;;;;;4852703;29;20057;-78
2022/09/16 12:18:32;;;;;;;0.10;0.10;;;15.90;99.90;;;;;;4877473;29;20097;-79
2022/09/16 12:21:16;;;;;;;0.20;0.20;;;16.00;99.90;;;;;;4873660;29;20414;-79
2022/09/16 12:23:46;;;;;;;0.20;0.20;;;16.00;99.90;;;;;;4870453;29;20049;-80
2022/09/16 12:26:18;;;;;;;0.20;0.20;;;16.10;99.90;;;;;;4875007;29;20041;-80
2022/09/16 12:29:18;;;;;;;0.20;0.20;;;16.10;99.90;;;;;;4860940;29;20044;-80
2022/09/16 12:31:51;;;;;;;0.22;0.22;;;16.20;99.90;;;;;;4857486;29;20041;-80
2022/09/16 12:34:22;;;;;;;0.10;0.10;;;16.30;99.90;;;;;;4859647;29;20231;-80
2022/09/16 12:36:58;;;;;;;;;;;16.30;99.90;;;;;;4876271;29;20096;-80
2022/09/16 12:39:23;;;;;;;0.20;0.20;;;16.30;99.90;;;;;;4876334;29;20054;-80
2022/09/16 12:42:14;;;;;;;0.20;0.20;;;16.30;99.90;;;;;;4850704;29;20431;-79
2022/09/16 12:45:09;;;;;;;0.30;0.30;;;16.20;99.90;;;;;;4875703;29;20324;-80
2022/09/16 12:47:34;;;;;;;0.10;0.10;;;16.10;99.90;;;;;;4858395;29;20113;-80
2022/09/16 12:50:48;;;;;;;0.20;0.20;;;16.00;99.90;;;;;;4860263;29;20065;-79
2022/09/16 12:53:41;;;;;;;0.20;0.20;;;16.00;99.90;;;;;;4847010;29;20505;-80
2022/09/16 12:56:28;;;;;;;0.20;0.20;;;15.90;99.90;;;;;;4875278;29;20454;-80
2022/09/16 12:59:11;;;;;;;0.20;0.20;;;15.90;99.90;;;;;;4859323;29;20108;-79
2022/09/16 13:01:48;;;;;;;0.20;0.20;;;15.90;99.90;;;;;;4875157;29;20040;-81
2022/09/16 13:04:40;;;;;;;0.20;0.20;;;15.90;99.90;;;;;;4871401;29;20044;-79
2022/09/16 13:07:05;;;;;;;0.17;0.17;;;15.90;99.90;;;;;;4865935;29;21045;-82
2022/09/16 13:09:38;;;;;;;0.20;0.20;;;16.00;99.90;;;;;;4858829;29;20051;-79
2022/09/16 13:12:15;;;;;;;0.20;0.20;;;16.00;99.90;;;;;;4875457;29;20608;-80
2022/09/16 13:14:48;;;;;;;0.20;0.20;;;16.00;99.90;;;;;;4868409;29;20045;-81
2022/09/16 13:17:13;;;;;;;0.15;0.15;;;15.90;99.90;;;;;;4855060;29;20060;-80
2022/09/16 13:19:49;;;;;;;0.20;0.20;;;15.50;99.90;;;;;;4875794;29;20045;-80
2022/09/16 13:22:59;;;;;;;0.20;0.20;;;15.30;99.90;;;;;;4852069;29;20045;-80